Time;durP1;ratioP1;P1;durP2;ratioP2;P2;SDS_P1;SDS_P2;PMS_P1;PMS_P2;Temp;Humidity;BMP_temperature;BMP_pressure;BME280_temperature;BME280_humidity;BME280_pressure;Samples;Min_cycle;Max_cycle;Signal;HPM_P1;HPM_P2
2022/04/07 00:01:07;;;;;;;0.10;0.10;;;11.00;99.90;;;;;;5006661;28;20445;-65
2022/04/07 00:03:33;;;;;;;0.20;0.20;;;10.90;99.90;;;;;;5006338;28;20473;-64
2022/04/07 00:05:58;;;;;;;0.10;0.10;;;11.00;99.90;;;;;;5008956;28;20065;-64
2022/04/07 00:08:24;;;;;;;0.10;0.10;;;10.90;99.90;;;;;;5007709;28;20060;-65
2022/04/07 00:10:50;;;;;;;0.10;0.10;;;10.90;99.90;;;;;;5009421;28;20172;-65
2022/04/07 00:13:17;;;;;;;0.10;0.10;;;10.90;99.90;;;;;;5004836;28;20444;-65
2022/04/07 00:15:43;;;;;;;0.10;0.10;;;10.90;99.90;;;;;;5002832;28;20040;-67
2022/04/07 00:18:09;;;;;;;0.17;0.17;;;10.90;99.90;;;;;;5008537;28;20531;-65
2022/04/07 00:20:35;;;;;;;0.10;0.10;;;10.80;99.90;;;;;;5009429;28;20504;-64
2022/04/07 00:23:01;;;;;;;0.10;0.10;;;10.80;99.90;;;;;;5008735;28;20037;-64
2022/04/07 00:25:27;;;;;;;0.10;0.10;;;10.70;99.90;;;;;;5007851;28;20500;-65
2022/04/07 00:27:53;;;;;;;0.10;0.10;;;10.70;99.90;;;;;;5007583;28;20271;-64
2022/04/07 00:30:21;;;;;;;0.10;0.10;;;10.80;99.90;;;;;;5009865;28;20021;-64
2022/04/07 00:32:48;;;;;;;0.10;0.10;;;10.70;99.90;;;;;;5009537;28;20026;-64
2022/04/07 00:35:14;;;;;;;0.10;0.10;;;10.70;99.90;;;;;;5009591;28;20034;-65
2022/04/07 00:37:40;;;;;;;0.10;0.10;;;10.70;99.90;;;;;;5033314;22;20053;-75
2022/04/07 00:40:08;;;;;;;0.10;0.10;;;10.70;99.90;;;;;;5038107;28;20408;-75
2022/04/07 00:42:33;;;;;;;0.10;0.10;;;10.80;99.90;;;;;;5041619;28;20307;-75
2022/04/07 00:45:00;;;;;;;0.10;0.10;;;10.80;99.90;;;;;;5045336;28;20452;-75
2022/04/07 00:47:27;;;;;;;0.10;0.10;;;10.80;99.90;;;;;;5039061;28;20208;-74
2022/04/07 00:49:53;;;;;;;0.10;0.10;;;10.80;99.90;;;;;;5045300;28;20039;-74
2022/04/07 00:52:19;;;;;;;0.10;0.10;;;10.80;99.90;;;;;;5047597;28;20040;-74
2022/04/07 00:54:45;;;;;;;0.10;0.10;;;10.90;99.90;;;;;;5037917;28;20033;-74
2022/04/07 00:57:11;;;;;;;0.10;0.10;;;10.90;99.90;;;;;;5035769;28;20018;-75
2022/04/07 00:59:39;;;;;;;0.10;0.10;;;10.90;99.90;;;;;;5042335;28;20040;-75
2022/04/07 01:02:06;;;;;;;0.10;0.10;;;10.90;99.90;;;;;;5023332;28;21644;-76
2022/04/07 01:04:32;;;;;;;0.00;0.00;;;10.90;99.90;;;;;;5023122;28;20037;-74
2022/04/07 01:06:58;;;;;;;0.10;0.10;;;10.90;99.90;;;;;;5026660;28;20030;-74
2022/04/07 01:09:24;;;;;;;0.68;0.68;;;10.90;99.90;;;;;;5026440;28;20029;-75
2022/04/07 01:11:51;;;;;;;0.10;0.10;;;10.90;99.90;;;;;;5022561;28;20030;-75
2022/04/07 01:14:17;;;;;;;0.10;0.10;;;10.90;99.90;;;;;;5031874;28;20096;-74
2022/04/07 01:16:43;;;;;;;0.10;0.10;;;10.80;99.90;;;;;;5023398;28;20037;-74
2022/04/07 01:19:09;;;;;;;0.10;0.10;;;10.80;99.90;;;;;;5031476;28;20100;-75
2022/04/07 01:21:39;;;;;;;0.10;0.10;;;10.70;99.90;;;;;;5024123;28;20503;-75
2022/04/07 01:24:05;;;;;;;0.10;0.10;;;10.70;99.90;;;;;;5022672;28;20033;-75
2022/04/07 01:26:32;;;;;;;0.10;0.10;;;10.70;99.90;;;;;;5021105;28;20045;-74
2022/04/07 01:29:01;;;;;;;0.10;0.10;;;10.80;99.90;;;;;;5027950;28;20017;-74
2022/04/07 01:31:28;;;;;;;0.10;0.10;;;10.80;99.90;;;;;;5025392;28;20034;-74
2022/04/07 01:33:56;;;;;;;0.10;0.10;;;10.70;99.90;;;;;;5022537;28;20110;-75
2022/04/07 01:36:22;;;;;;;0.10;0.10;;;10.70;99.90;;;;;;5031655;28;20537;-75
2022/04/07 01:38:48;;;;;;;0.10;0.10;;;10.70;99.90;;;;;;5029943;28;20036;-75
2022/04/07 01:41:14;;;;;;;0.00;0.00;;;10.60;99.90;;;;;;5027107;28;20503;-75
2022/04/07 01:43:41;;;;;;;0.10;0.10;;;10.60;99.90;;;;;;5021850;28;20197;-75
2022/04/07 01:46:12;;;;;;;0.00;0.00;;;10.50;99.90;;;;;;5023020;28;20108;-75
2022/04/07 01:48:38;;;;;;;0.10;0.10;;;10.50;99.90;;;;;;5022304;28;20021;-76
2022/04/07 01:51:04;;;;;;;0.20;0.20;;;10.50;99.90;;;;;;5029334;28;20033;-73
2022/04/07 01:53:30;;;;;;;0.10;0.10;;;10.50;99.90;;;;;;5024443;28;20381;-76
2022/04/07 01:55:56;;;;;;;0.10;0.10;;;10.50;99.90;;;;;;5023436;28;20087;-75
2022/04/07 01:58:22;;;;;;;0.10;0.10;;;10.50;99.90;;;;;;5035657;28;20065;-76
2022/04/07 02:00:48;;;;;;;0.10;0.10;;;10.50;99.90;;;;;;5038597;28;20029;-76
2022/04/07 02:03:13;;;;;;;0.10;0.10;;;10.50;99.90;;;;;;5042399;28;20435;-76
2022/04/07 02:05:39;;;;;;;0.10;0.10;;;10.50;99.90;;;;;;5039465;28;20097;-76
2022/04/07 02:08:05;;;;;;;9.52;4.40;;;10.50;99.90;;;;;;5036439;28;20472;-77
2022/04/07 02:10:32;;;;;;;0.10;0.10;;;10.50;99.90;;;;;;5040664;28;20431;-76
2022/04/07 02:12:58;;;;;;;0.10;0.10;;;10.60;99.90;;;;;;5042743;28;20024;-77
2022/04/07 02:15:26;;;;;;;0.10;0.10;;;10.60;99.90;;;;;;5042643;28;20105;-76
2022/04/07 02:17:52;;;;;;;0.10;0.10;;;10.60;99.90;;;;;;5042443;28;20440;-76
2022/04/07 02:20:19;;;;;;;0.10;0.10;;;10.60;99.90;;;;;;5036289;28;20064;-76
2022/04/07 02:22:44;;;;;;;0.10;0.10;;;10.50;99.90;;;;;;5042430;28;20115;-76
2022/04/07 02:25:10;;;;;;;0.10;0.10;;;10.50;99.90;;;;;;5037587;28;20664;-78
2022/04/07 02:27:40;;;;;;;0.10;0.10;;;10.50;99.90;;;;;;5043972;28;20037;-76
2022/04/07 02:30:12;;;;;;;0.10;0.10;;;10.50;99.90;;;;;;5041505;28;20047;-75
2022/04/07 02:32:38;;;;;;;0.10;0.10;;;10.50;99.90;;;;;;5041206;28;20034;-75
2022/04/07 02:35:04;;;;;;;0.00;0.00;;;10.60;99.90;;;;;;5040724;28;20079;-75
2022/04/07 02:37:30;;;;;;;0.10;0.10;;;10.50;99.90;;;;;;5024637;28;20022;-75
2022/04/07 02:39:56;;;;;;;0.10;0.10;;;10.50;99.90;;;;;;5043985;28;20525;-75
2022/04/07 02:42:22;;;;;;;0.10;0.10;;;10.50;99.90;;;;;;5025917;28;20061;-75
2022/04/07 02:44:47;;;;;;;0.10;0.10;;;10.50;99.90;;;;;;5032307;28;20048;-76
2022/04/07 02:47:13;;;;;;;0.10;0.10;;;10.50;99.90;;;;;;5032812;28;20037;-75
2022/04/07 02:49:39;;;;;;;0.10;0.10;;;10.40;99.90;;;;;;5036326;28;20057;-77
2022/04/07 02:52:09;;;;;;;0.10;0.10;;;10.50;99.90;;;;;;5027656;28;20072;-75
2022/04/07 02:54:35;;;;;;;0.10;0.10;;;10.50;99.90;;;;;;5030784;28;20033;-76
2022/04/07 02:57:01;;;;;;;0.10;0.10;;;10.50;99.90;;;;;;5031551;28;20142;-75
2022/04/07 02:59:27;;;;;;;0.10;0.10;;;10.50;99.90;;;;;;5036072;28;20033;-75
2022/04/07 03:01:53;;;;;;;0.10;0.10;;;10.50;99.90;;;;;;5043834;28;20362;-75
2022/04/07 03:04:19;;;;;;;0.10;0.10;;;10.40;99.90;;;;;;5035314;28;20025;-75
2022/04/07 03:06:45;;;;;;;0.10;0.10;;;10.50;99.90;;;;;;5038965;28;20032;-76
2022/04/07 03:09:11;;;;;;;0.10;0.10;;;10.40;99.90;;;;;;5047929;28;20082;-76
2022/04/07 03:11:36;;;;;;;0.10;0.10;;;10.40;99.90;;;;;;5036874;28;20053;-76
2022/04/07 03:14:02;;;;;;;0.10;0.10;;;10.40;99.90;;;;;;5027574;28;20511;-74
2022/04/07 03:16:28;;;;;;;0.20;0.20;;;10.30;99.90;;;;;;5031241;28;20032;-75
2022/04/07 03:18:53;;;;;;;0.10;0.10;;;10.30;99.90;;;;;;5035839;28;20570;-74
2022/04/07 03:21:19;;;;;;;0.10;0.10;;;10.30;99.90;;;;;;5041665;28;20065;-76
2022/04/07 03:23:44;;;;;;;0.10;0.10;;;10.30;99.90;;;;;;5035797;28;20111;-75
2022/04/07 03:26:10;;;;;;;0.10;0.10;;;10.30;99.90;;;;;;5046128;28;20013;-74
2022/04/07 03:28:36;;;;;;;0.10;0.10;;;10.20;99.90;;;;;;5039973;28;20021;-75
2022/04/07 03:31:02;;;;;;;0.10;0.10;;;10.30;99.90;;;;;;5024174;28;20120;-75
2022/04/07 03:33:27;;;;;;;0.10;0.10;;;10.30;99.90;;;;;;5023179;28;20077;-75
2022/04/07 03:35:53;;;;;;;0.10;0.10;;;10.30;99.90;;;;;;5025068;28;20060;-75
2022/04/07 03:38:19;;;;;;;0.10;0.10;;;10.30;99.90;;;;;;5037393;28;20167;-77
2022/04/07 03:40:45;;;;;;;0.10;0.10;;;10.30;99.90;;;;;;5032235;28;20508;-75
2022/04/07 03:43:10;;;;;;;0.10;0.10;;;10.30;99.90;;;;;;5038191;28;20052;-74
2022/04/07 03:45:36;;;;;;;0.10;0.10;;;10.20;99.90;;;;;;5024305;28;20030;-73
2022/04/07 03:48:02;;;;;;;0.10;0.10;;;10.30;99.90;;;;;;5033042;28;20052;-74
2022/04/07 03:50:27;;;;;;;0.10;0.10;;;10.20;99.90;;;;;;5023445;28;20033;-74
2022/04/07 03:52:53;;;;;;;0.10;0.10;;;10.20;99.90;;;;;;5009867;28;20033;-76
2022/04/07 03:55:20;;;;;;;0.10;0.10;;;10.20;99.90;;;;;;5028451;28;20025;-76
2022/04/07 03:57:46;;;;;;;2.97;2.78;;;10.20;99.90;;;;;;5030855;28;20032;-76
2022/04/07 04:00:12;;;;;;;0.10;0.10;;;10.30;99.90;;;;;;5034294;28;20508;-75
2022/04/07 04:02:38;;;;;;;0.50;0.50;;;10.20;99.90;;;;;;5039548;28;20025;-75
2022/04/07 04:05:04;;;;;;;0.10;0.10;;;10.20;99.90;;;;;;5034271;28;20025;-74
2022/04/07 04:07:29;;;;;;;0.10;0.10;;;10.30;99.90;;;;;;5044369;28;20464;-75
2022/04/07 04:09:55;;;;;;;0.10;0.10;;;10.20;99.90;;;;;;5038565;28;20024;-76
2022/04/07 04:12:20;;;;;;;0.10;0.10;;;10.30;99.90;;;;;;5039904;28;20034;-75
2022/04/07 04:14:46;;;;;;;0.10;0.10;;;10.30;99.90;;;;;;5034025;28;20457;-75
2022/04/07 04:17:12;;;;;;;7.25;6.50;;;10.20;99.90;;;;;;5041973;28;20021;-75
2022/04/07 04:19:37;;;;;;;0.10;0.10;;;10.20;99.90;;;;;;5038741;28;20503;-75
2022/04/07 04:22:03;;;;;;;0.10;0.10;;;10.20;99.90;;;;;;5039748;28;20052;-75
2022/04/07 04:24:29;;;;;;;0.10;0.10;;;10.20;99.90;;;;;;5036145;28;20039;-78
2022/04/07 04:26:54;;;;;;;0.10;0.10;;;10.20;99.90;;;;;;5038335;28;20453;-77
2022/04/07 04:29:20;;;;;;;0.10;0.10;;;10.20;99.90;;;;;;5040775;28;20183;-76
2022/04/07 04:31:46;;;;;;;0.10;0.10;;;10.10;99.90;;;;;;5039480;28;20496;-75
2022/04/07 04:34:11;;;;;;;0.10;0.10;;;10.20;99.90;;;;;;5039102;28;20029;-75
2022/04/07 04:36:37;;;;;;;0.10;0.10;;;10.20;99.90;;;;;;5034266;28;20037;-74
2022/04/07 04:39:03;;;;;;;0.10;0.10;;;10.20;99.90;;;;;;5025829;28;20067;-75
2022/04/07 04:41:29;;;;;;;0.10;0.10;;;10.20;99.90;;;;;;5028062;28;20056;-75
2022/04/07 04:43:55;;;;;;;0.10;0.10;;;10.20;99.90;;;;;;5033128;28;20030;-74
2022/04/07 04:46:21;;;;;;;0.10;0.10;;;10.20;99.90;;;;;;5023103;28;20026;-74
2022/04/07 04:48:47;;;;;;;0.10;0.10;;;10.30;99.90;;;;;;5023022;28;20052;-75
2022/04/07 04:51:12;;;;;;;0.10;0.10;;;10.30;99.90;;;;;;5032223;28;20060;-74
2022/04/07 04:53:38;;;;;;;0.10;0.10;;;10.30;99.90;;;;;;5026167;28;20032;-76
2022/04/07 04:56:04;;;;;;;0.10;0.10;;;10.30;99.90;;;;;;5026917;28;20559;-76
2022/04/07 04:58:30;;;;;;;0.10;0.10;;;10.30;99.90;;;;;;5034088;28;20040;-76
2022/04/07 05:00:56;;;;;;;0.10;0.10;;;10.40;99.90;;;;;;5034466;28;20432;-75
2022/04/07 05:03:22;;;;;;;0.10;0.10;;;10.40;99.90;;;;;;5028014;28;20025;-77
2022/04/07 05:05:48;;;;;;;0.10;0.10;;;10.40;99.90;;;;;;5024806;28;20029;-77
2022/04/07 05:08:13;;;;;;;0.10;0.10;;;10.40;99.90;;;;;;5033533;28;20041;-76
2022/04/07 05:10:40;;;;;;;0.05;0.05;;;10.50;99.90;;;;;;5027419;28;20045;-76
2022/04/07 05:13:06;;;;;;;0.10;0.10;;;10.50;99.90;;;;;;5023003;28;20060;-76
2022/04/07 05:15:31;;;;;;;0.10;0.10;;;10.40;99.90;;;;;;5030748;28;20481;-75
2022/04/07 05:17:57;;;;;;;0.90;0.90;;;10.40;99.90;;;;;;5033931;28;20030;-75
2022/04/07 05:20:23;;;;;;;0.10;0.10;;;10.40;99.90;;;;;;5021144;28;20029;-78
2022/04/07 05:22:49;;;;;;;0.10;0.10;;;10.40;99.90;;;;;;5032651;28;20029;-76
2022/04/07 05:25:15;;;;;;;0.10;0.10;;;10.40;99.90;;;;;;5029290;28;20037;-76
2022/04/07 05:27:42;;;;;;;0.10;0.10;;;10.40;99.90;;;;;;5037854;28;20115;-76
2022/04/07 05:30:15;;;;;;;1.75;1.65;;;10.30;99.90;;;;;;5024911;28;20017;-75
2022/04/07 05:32:44;;;;;;;0.10;0.10;;;10.40;99.90;;;;;;5025685;28;20057;-70
2022/04/07 05:35:13;;;;;;;0.10;0.10;;;10.40;99.90;;;;;;5020924;28;20053;-69
2022/04/07 05:37:40;;;;;;;0.10;0.10;;;10.40;99.90;;;;;;5026786;28;20492;-69
2022/04/07 05:40:08;;;;;;;0.10;0.10;;;10.60;99.90;;;;;;5031601;28;20030;-69
2022/04/07 05:42:34;;;;;;;0.10;0.10;;;10.70;99.90;;;;;;5026401;28;20070;-76
2022/04/07 05:45:00;;;;;;;0.10;0.10;;;10.80;99.90;;;;;;5030139;28;20033;-76
2022/04/07 05:47:25;;;;;;;0.10;0.10;;;10.70;99.90;;;;;;5041799;28;20029;-74
2022/04/07 05:49:56;;;;;;;0.10;0.10;;;10.70;99.90;;;;;;5028625;28;20025;-75
2022/04/07 05:52:22;;;;;;;0.10;0.10;;;10.60;99.90;;;;;;5033277;28;20159;-76
2022/04/07 05:54:48;;;;;;;0.10;0.10;;;10.60;99.90;;;;;;5042315;28;20033;-76
2022/04/07 05:57:14;;;;;;;0.10;0.10;;;10.60;99.90;;;;;;5042593;28;20104;-77
2022/04/07 05:59:39;;;;;;;0.10;0.10;;;10.60;99.90;;;;;;5047187;28;20120;-77
2022/04/07 06:02:05;;;;;;;0.10;0.10;;;10.60;99.90;;;;;;5049400;28;20456;-77
2022/04/07 06:04:31;;;;;;;0.10;0.10;;;10.70;99.90;;;;;;5049697;28;20044;-76
2022/04/07 06:06:57;;;;;;;0.10;0.10;;;10.80;99.90;;;;;;5040227;28;20103;-76
2022/04/07 06:09:22;;;;;;;0.10;0.10;;;10.80;99.90;;;;;;5043859;28;20468;-74
2022/04/07 06:11:48;;;;;;;0.10;0.10;;;10.90;99.90;;;;;;5040630;28;20443;-76
2022/04/07 06:14:13;;;;;;;0.10;0.10;;;11.00;99.90;;;;;;5043439;28;20396;-76
2022/04/07 06:16:39;;;;;;;0.10;0.10;;;11.00;99.90;;;;;;5040068;28;20029;-75
2022/04/07 06:19:05;;;;;;;0.10;0.10;;;11.10;99.90;;;;;;5044580;28;20036;-76
2022/04/07 06:21:31;;;;;;;0.10;0.10;;;11.20;99.90;;;;;;5040101;28;20025;-75
2022/04/07 06:23:57;;;;;;;0.10;0.10;;;11.20;99.90;;;;;;5036365;28;20025;-75
2022/04/07 06:26:23;;;;;;;0.10;0.10;;;11.30;99.90;;;;;;5039681;28;20056;-75
2022/04/07 06:28:49;;;;;;;0.10;0.10;;;11.40;99.90;;;;;;5040903;28;20124;-74
2022/04/07 06:31:15;;;;;;;0.10;0.10;;;11.40;99.90;;;;;;5043042;28;20495;-76
2022/04/07 06:33:40;;;;;;;0.10;0.10;;;11.40;99.90;;;;;;5042439;28;20033;-77
2022/04/07 06:36:07;;;;;;;0.10;0.10;;;11.40;99.90;;;;;;5039447;28;20484;-76
2022/04/07 06:38:33;;;;;;;0.10;0.10;;;11.40;99.90;;;;;;5034431;28;20029;-76
2022/04/07 06:41:01;;;;;;;0.10;0.10;;;11.40;99.90;;;;;;5031185;28;20538;-76
2022/04/07 06:43:27;;;;;;;0.52;0.50;;;11.40;99.90;;;;;;5035757;28;20044;-77
2022/04/07 06:45:53;;;;;;;0.10;0.10;;;11.50;99.90;;;;;;5038629;28;20037;-77
2022/04/07 06:48:19;;;;;;;0.10;0.10;;;11.50;99.90;;;;;;5034677;28;20070;-77
2022/04/07 06:50:45;;;;;;;0.10;0.10;;;11.50;99.90;;;;;;5041909;28;20025;-76
2022/04/07 06:53:12;;;;;;;0.10;0.10;;;11.50;99.90;;;;;;5034526;28;20037;-76
2022/04/07 06:55:38;;;;;;;0.10;0.10;;;11.50;99.90;;;;;;5026075;28;20108;-77
2022/04/07 06:58:06;;;;;;;0.10;0.10;;;11.50;99.90;;;;;;5035431;28;20523;-74
2022/04/07 07:00:43;;;;;;;0.10;0.10;;;11.50;99.90;;;;;;5034655;28;20042;-77
2022/04/07 07:03:09;;;;;;;0.10;0.10;;;11.50;99.90;;;;;;5032055;28;20033;-75
2022/04/07 07:05:36;;;;;;;0.10;0.10;;;11.50;99.90;;;;;;5028655;28;20033;-76
2022/04/07 07:08:19;;;;;;;0.10;0.10;;;11.50;99.90;;;;;;5033169;28;20116;-77
2022/04/07 07:10:48;;;;;;;0.10;0.10;;;11.50;99.90;;;;;;5028950;28;20110;-77
2022/04/07 07:13:22;;;;;;;0.10;0.10;;;11.60;99.90;;;;;;5024546;28;20127;-77
2022/04/07 07:15:48;;;;;;;0.10;0.10;;;11.70;99.90;;;;;;5033736;28;20024;-76
2022/04/07 07:18:14;;;;;;;0.70;0.70;;;11.70;99.90;;;;;;5034767;28;20022;-76
2022/04/07 07:20:43;;;;;;;0.10;0.10;;;11.80;99.90;;;;;;5040105;28;20398;-79
2022/04/07 07:23:08;;;;;;;0.10;0.10;;;11.80;99.90;;;;;;5026526;28;20026;-76
2022/04/07 07:25:35;;;;;;;0.10;0.10;;;11.70;99.90;;;;;;5034615;28;20025;-73
2022/04/07 07:28:04;;;;;;;0.10;0.10;;;11.80;99.90;;;;;;5030228;28;20021;-77
2022/04/07 07:30:30;;;;;;;0.10;0.10;;;11.80;99.90;;;;;;5031792;28;20067;-78
2022/04/07 07:32:55;;;;;;;0.10;0.10;;;11.90;99.90;;;;;;5029647;28;20110;-75
2022/04/07 07:35:22;;;;;;;0.00;0.00;;;12.00;99.90;;;;;;5038699;28;20152;-77
2022/04/07 07:37:51;;;;;;;0.10;0.10;;;12.10;99.90;;;;;;5027751;28;20034;-79
2022/04/07 07:40:18;;;;;;;0.10;0.10;;;12.10;99.90;;;;;;5032671;28;20033;-76
2022/04/07 07:42:44;;;;;;;0.10;0.10;;;12.30;99.90;;;;;;5033479;28;20024;-75
2022/04/07 07:45:10;;;;;;;0.00;0.00;;;12.30;99.90;;;;;;5032541;28;20520;-76
2022/04/07 07:47:36;;;;;;;0.00;0.00;;;12.30;99.90;;;;;;5031222;28;20034;-77
2022/04/07 07:50:03;;;;;;;0.10;0.10;;;12.40;99.90;;;;;;5036550;28;20029;-76
2022/04/07 07:52:29;;;;;;;0.10;0.10;;;12.50;99.90;;;;;;5035441;28;20048;-76
2022/04/07 07:54:54;;;;;;;0.10;0.10;;;12.50;99.90;;;;;;5036769;28;20484;-76
2022/04/07 07:57:20;;;;;;;0.00;0.00;;;12.60;99.90;;;;;;5029708;28;20036;-77
2022/04/07 07:59:46;;;;;;;0.08;0.08;;;12.70;99.90;;;;;;5034527;28;20026;-78
2022/04/07 08:02:12;;;;;;;0.00;0.00;;;12.70;99.90;;;;;;5037259;28;20104;-76
2022/04/07 08:04:38;;;;;;;0.05;0.05;;;12.70;99.90;;;;;;5031205;28;20133;-73
2022/04/07 08:07:04;;;;;;;0.10;0.10;;;12.80;99.90;;;;;;5030460;28;20032;-77
2022/04/07 08:09:29;;;;;;;0.10;0.10;;;12.70;99.90;;;;;;5034275;28;20095;-72
2022/04/07 08:11:55;;;;;;;0.10;0.10;;;12.80;99.90;;;;;;5032929;28;20045;-72
2022/04/07 08:14:21;;;;;;;0.10;0.10;;;12.80;99.90;;;;;;5029286;28;20553;-73
2022/04/07 08:16:46;;;;;;;0.10;0.10;;;12.80;99.90;;;;;;5037263;28;20083;-72
2022/04/07 08:19:12;;;;;;;0.05;0.05;;;12.90;99.90;;;;;;5031499;28;20030;-78
2022/04/07 08:21:38;;;;;;;0.10;0.10;;;12.90;99.90;;;;;;5035566;28;20041;-77
2022/04/07 08:24:04;;;;;;;0.10;0.10;;;12.90;99.90;;;;;;5038664;28;20086;-78
2022/04/07 08:26:30;;;;;;;0.03;0.03;;;12.80;99.90;;;;;;5040957;28;20017;-79
2022/04/07 08:28:56;;;;;;;0.10;0.10;;;12.90;99.90;;;;;;5035059;28;20025;-76
2022/04/07 08:31:23;;;;;;;0.10;0.10;;;13.00;99.90;;;;;;5047016;28;20085;-74
2022/04/07 08:33:49;;;;;;;0.10;0.10;;;13.10;99.90;;;;;;5053896;28;20077;-77
2022/04/07 08:36:15;;;;;;;0.00;0.00;;;13.10;99.90;;;;;;5039730;28;20109;-77
2022/04/07 08:38:40;;;;;;;0.00;0.00;;;13.10;99.90;;;;;;5040721;28;20060;-77
2022/04/07 08:41:09;;;;;;;0.10;0.10;;;13.10;99.90;;;;;;5027816;28;20400;-75
2022/04/07 08:43:38;;;;;;;0.00;0.00;;;13.10;99.90;;;;;;5025478;28;20022;-74
2022/04/07 08:46:08;;;;;;;0.10;0.10;;;13.20;99.90;;;;;;5027203;28;20013;-76
2022/04/07 08:48:37;;;;;;;0.10;0.10;;;13.20;99.90;;;;;;5028158;28;20428;-77
2022/04/07 08:51:04;;;;;;;0.10;0.10;;;13.30;99.90;;;;;;5030689;28;20017;-75
2022/04/07 08:53:30;;;;;;;0.10;0.10;;;13.50;99.90;;;;;;5031290;28;20064;-78
2022/04/07 08:55:59;;;;;;;0.05;0.05;;;13.50;99.90;;;;;;5023277;28;20049;-77
2022/04/07 08:58:25;;;;;;;0.17;0.17;;;13.60;99.90;;;;;;5027822;28;20416;-76
2022/04/07 09:00:51;;;;;;;0.10;0.10;;;13.60;99.90;;;;;;5028742;28;20033;-76
2022/04/07 09:03:17;;;;;;;0.10;0.10;;;13.50;99.90;;;;;;5028906;28;20033;-78
2022/04/07 09:06:03;;;;;;;0.10;0.10;;;13.50;99.90;;;;;;5020960;28;20021;-75
2022/04/07 09:08:37;;;;;;;0.10;0.10;;;13.50;99.90;;;;;;5024438;28;20033;-77
2022/04/07 09:11:06;;;;;;;0.10;0.10;;;13.50;99.90;;;;;;5028000;28;20065;-78
2022/04/07 09:13:34;;;;;;;0.10;0.10;;;13.60;99.90;;;;;;5029359;28;20052;-75
2022/04/07 09:16:07;;;;;;;0.10;0.10;;;13.70;99.90;;;;;;5030547;28;20029;-76
2022/04/07 09:18:35;;;;;;;0.10;0.10;;;13.70;99.90;;;;;;5027655;28;20029;-77
2022/04/07 09:21:01;;;;;;;0.10;0.10;;;13.70;99.90;;;;;;5032832;28;20049;-76
2022/04/07 09:23:30;;;;;;;0.00;0.00;;;13.70;99.90;;;;;;5026375;28;20018;-77
2022/04/07 09:25:57;;;;;;;0.10;0.10;;;13.70;99.90;;;;;;5030656;28;20083;-77
2022/04/07 09:28:29;;;;;;;0.10;0.10;;;13.70;99.90;;;;;;5032000;28;20018;-78
2022/04/07 09:30:57;;;;;;;0.10;0.10;;;13.60;99.90;;;;;;5032342;28;20028;-77
2022/04/07 09:33:23;;;;;;;0.10;0.10;;;13.40;99.90;;;;;;5030554;28;20033;-77
2022/04/07 09:36:19;;;;;;;0.10;0.10;;;13.40;99.90;;;;;;5033195;28;20084;-77
2022/04/07 09:38:52;;;;;;;0.00;0.00;;;13.40;99.90;;;;;;5030311;28;20045;-78
2022/04/07 09:41:20;;;;;;;0.10;0.10;;;13.40;99.90;;;;;;5037746;28;20655;-78
2022/04/07 09:43:47;;;;;;;0.10;0.10;;;13.30;99.90;;;;;;5032251;28;20029;-76
2022/04/07 09:46:20;;;;;;;0.10;0.10;;;13.20;99.90;;;;;;5026138;28;20021;-78
2022/04/07 09:49:05;;;;;;;;;;;13.10;99.90;;;;;;5038688;28;20017;-78
2022/04/07 09:51:44;;;;;;;0.10;0.10;;;13.00;99.90;;;;;;5036795;28;19917;-77
2022/04/07 09:54:10;;;;;;;0.10;0.10;;;13.10;99.90;;;;;;5031098;28;20028;-79
2022/04/07 09:56:37;;;;;;;0.10;0.10;;;13.30;99.90;;;;;;5029818;28;20060;-76
2022/04/07 09:59:06;;;;;;;0.10;0.10;;;13.40;99.90;;;;;;5025306;28;20041;-77
2022/04/07 10:01:33;;;;;;;0.10;0.10;;;13.60;99.90;;;;;;5032126;28;20037;-76
2022/04/07 10:03:59;;;;;;;0.10;0.10;;;13.80;99.90;;;;;;5032582;28;20025;-78
2022/04/07 10:06:25;;;;;;;0.00;0.00;;;13.90;99.90;;;;;;5030238;28;20087;-78
2022/04/07 10:08:51;;;;;;;0.10;0.10;;;13.80;99.90;;;;;;5026107;28;20132;-79
2022/04/07 10:11:17;;;;;;;0.10;0.10;;;13.90;99.90;;;;;;5033294;28;20025;-78
2022/04/07 10:13:45;;;;;;;0.10;0.10;;;14.00;99.90;;;;;;5031917;28;20101;-78
2022/04/07 10:16:11;;;;;;;0.00;0.00;;;14.10;99.90;;;;;;5029146;28;20489;-81
2022/04/07 10:18:45;;;;;;;0.00;0.00;;;14.20;99.90;;;;;;5023933;28;20032;-77
2022/04/07 10:21:17;;;;;;;;;;;14.20;99.90;;;;;;5039794;28;20044;-76
2022/04/07 10:24:03;;;;;;;0.15;0.15;;;14.20;99.90;;;;;;5035512;28;20071;-75
2022/04/07 10:26:30;;;;;;;0.10;0.10;;;14.30;99.90;;;;;;5026723;28;20094;-76
2022/04/07 10:28:56;;;;;;;0.10;0.10;;;14.20;99.90;;;;;;5030452;28;20032;-78
2022/04/07 10:31:22;;;;;;;0.10;0.10;;;14.40;99.90;;;;;;5026590;28;20017;-73
2022/04/07 10:33:48;;;;;;;0.10;0.10;;;14.50;99.90;;;;;;5025391;28;20025;-73
2022/04/07 10:36:22;;;;;;;0.10;0.10;;;14.60;99.90;;;;;;5027491;28;20104;-78
2022/04/07 10:38:51;;;;;;;0.10;0.10;;;15.20;99.90;;;;;;5030944;28;20067;-81
2022/04/07 10:41:35;;;;;;;0.10;0.10;;;14.30;99.90;;;;;;5027553;28;20025;-78
2022/04/07 10:44:12;;;;;;;0.10;0.10;;;14.40;99.90;;;;;;5028496;28;20213;-79
2022/04/07 10:46:37;;;;;;;0.10;0.10;;;14.40;99.90;;;;;;5026746;28;20021;-76
2022/04/07 10:49:09;;;;;;;0.00;0.00;;;14.20;99.90;;;;;;5029873;28;20774;-77
2022/04/07 10:51:42;;;;;;;0.10;0.10;;;14.40;99.90;;;;;;5023414;28;20489;-77
2022/04/07 10:54:08;;;;;;;;;;;14.40;99.90;;;;;;5022185;28;20029;-81
2022/04/07 10:56:39;;;;;;;0.10;0.10;;;14.60;99.90;;;;;;5029885;28;19913;-77
2022/04/07 10:59:21;;;;;;;0.00;0.00;;;14.60;99.90;;;;;;5030815;28;20029;-78
2022/04/07 11:02:06;;;;;;;0.00;0.00;;;14.50;99.90;;;;;;5026564;28;20036;-77
2022/04/07 11:04:40;;;;;;;0.10;0.10;;;14.50;99.90;;;;;;5026227;28;20106;-78
2022/04/07 11:07:13;;;;;;;0.10;0.10;;;14.40;99.90;;;;;;5027914;28;20094;-78
2022/04/07 11:09:58;;;;;;;0.10;0.10;;;14.40;99.90;;;;;;5028219;28;20047;-78
2022/04/07 11:12:43;;;;;;;0.00;0.00;;;14.40;99.90;;;;;;5021491;28;20036;-76
2022/04/07 11:15:24;;;;;;;0.10;0.10;;;14.50;99.90;;;;;;5025026;28;20025;-77
2022/04/07 11:17:52;;;;;;;0.00;0.00;;;14.50;99.90;;;;;;5021433;28;20041;-72
2022/04/07 11:20:26;;;;;;;0.10;0.10;;;14.80;99.90;;;;;;5024850;28;20048;-78
2022/04/07 11:22:52;;;;;;;0.00;0.00;;;14.70;99.90;;;;;;5022741;28;20136;-77
2022/04/07 11:25:24;;;;;;;0.00;0.00;;;15.00;99.90;;;;;;5027132;28;20022;-78
2022/04/07 11:28:15;;;;;;;0.10;0.10;;;14.60;99.90;;;;;;5025957;28;20060;-76
2022/04/07 11:30:42;;;;;;;0.10;0.10;;;14.60;99.90;;;;;;5026181;28;20101;-75
2022/04/07 11:36:00;;;;;;;0.10;0.10;;;14.80;99.90;;;;;;5023190;28;20526;-76
2022/04/07 11:38:27;;;;;;;0.10;0.10;;;14.80;99.90;;;;;;5019792;28;20057;-74
2022/04/07 11:41:05;;;;;;;0.10;0.10;;;14.80;99.90;;;;;;5026656;28;20025;-76
2022/04/07 11:43:32;;;;;;;0.10;0.10;;;14.80;99.90;;;;;;5027266;28;20304;-76
2022/04/07 11:45:58;;;;;;;0.00;0.00;;;14.90;99.90;;;;;;5023748;28;20496;-75
2022/04/07 11:48:29;;;;;;;0.08;0.08;;;14.80;99.90;;;;;;5026403;28;20050;-75
2022/04/07 11:51:00;;;;;;;0.00;0.00;;;14.90;99.90;;;;;;5027121;28;20025;-76
2022/04/07 11:53:27;;;;;;;0.10;0.10;;;15.00;99.90;;;;;;5022845;28;20102;-75
2022/04/07 11:55:53;;;;;;;0.10;0.10;;;15.10;99.90;;;;;;5022800;28;20179;-77
2022/04/07 11:58:19;;;;;;;0.00;0.00;;;15.00;99.90;;;;;;5023303;28;20033;-76
2022/04/07 12:00:45;;;;;;;0.05;0.05;;;15.00;99.90;;;;;;5027188;28;20120;-77
2022/04/07 12:03:10;;;;;;;0.00;0.00;;;15.60;99.90;;;;;;5030072;28;20029;-78
2022/04/07 12:05:37;;;;;;;0.10;0.10;;;14.70;99.90;;;;;;5033248;28;20022;-77
2022/04/07 12:08:10;;;;;;;0.10;0.10;;;14.60;99.90;;;;;;5033525;28;20017;-78
2022/04/07 12:10:37;;;;;;;0.10;0.10;;;14.70;99.90;;;;;;5025948;28;20025;-78
2022/04/07 12:13:02;;;;;;;0.10;0.10;;;14.60;99.90;;;;;;5030358;28;20037;-76
2022/04/07 12:15:28;;;;;;;0.10;0.10;;;14.70;99.90;;;;;;5028935;28;20178;-79
2022/04/07 12:18:01;;;;;;;0.10;0.10;;;14.60;99.90;;;;;;5033451;28;20025;-78
2022/04/07 12:20:28;;;;;;;0.00;0.00;;;14.60;99.90;;;;;;5018877;28;20145;-77
2022/04/07 12:23:14;;;;;;;0.00;0.00;;;14.70;99.90;;;;;;5031225;28;20030;-79
2022/04/07 12:25:43;;;;;;;0.10;0.10;;;14.90;99.90;;;;;;5031083;28;20040;-78
2022/04/07 12:28:17;;;;;;;0.10;0.10;;;14.70;99.90;;;;;;5031614;28;20469;-79
2022/04/07 12:30:53;;;;;;;0.10;0.10;;;14.40;99.90;;;;;;5026224;28;20473;-77
2022/04/07 12:33:40;;;;;;;0.05;0.05;;;14.20;99.90;;;;;;5026693;28;20021;-80
2022/04/07 12:36:29;;;;;;;0.10;0.10;;;14.20;99.90;;;;;;5024978;28;20499;-78
2022/04/07 12:39:03;;;;;;;0.10;0.10;;;14.10;99.90;;;;;;5024411;28;20199;-78
2022/04/07 12:41:38;;;;;;;0.10;0.10;;;14.10;99.90;;;;;;5034182;22;20128;-69
2022/04/07 12:44:05;;;;;;;0.10;0.10;;;14.10;99.90;;;;;;5023480;28;20783;-68
2022/04/07 12:46:55;;;;;;;0.10;0.10;;;14.00;99.90;;;;;;5012999;28;20029;-67
2022/04/07 12:49:24;;;;;;;0.10;0.10;;;14.10;99.90;;;;;;5016540;28;20120;-68
2022/04/07 12:52:05;;;;;;;0.10;0.10;;;14.10;99.90;;;;;;5005036;28;20026;-70
2022/04/07 12:54:31;;;;;;;0.10;0.10;;;14.00;99.90;;;;;;5009932;28;20127;-71